Terminal Aerodrome Forecast
Issued by NWS St Louis, MO

Home | Current Version | Previous Version | Text Only | Print | Product List | Glossary On
Versions: 1 2 3 4 5 6 7 8 9 10 11 12 13 14 15 16 17 18 19 20 21 22 23
667
FTUS43 KLSX 282050 AAA
TAFSTL
TAF AMD
KSTL 282050Z 2821/2924 32008KT P6SM SCT050
     FM282300 32007KT P6SM VCTS BKN050CB
     FM290100 32005KT P6SM SCT250
     FM291500 30007KT P6SM BKN040=

USA.gov is the U.S. government's official web portal to all federal, state and local government web resources and services.